Time;durP1;ratioP1;P1;durP2;ratioP2;P2;SDS_P1;SDS_P2;PMS_P1;PMS_P2;Temp;Humidity;BMP_temperature;BMP_pressure;BME280_temperature;BME280_humidity;BME280_pressure;Samples;Min_cycle;Max_cycle;Signal;HPM_P1;HPM_P2
2023/03/08 00:00:09;;;;;;;20.67;9.90;;;;;;;-145.18;100.00;60484.78;5071719;28;20024;-63
2023/03/08 00:02:35;;;;;;;24.77;10.80;;;;;;;-145.18;100.00;60484.78;5072396;28;21150;-62
2023/03/08 00:05:00;;;;;;;19.10;9.33;;;;;;;-145.18;100.00;60484.78;5071154;28;20032;-62
2023/03/08 00:07:26;;;;;;;22.10;9.20;;;;;;;-145.18;100.00;60484.78;5068591;28;20380;-62
2023/03/08 00:09:51;;;;;;;21.20;8.73;;;;;;;-145.18;100.00;60484.78;5054581;28;20043;-62
2023/03/08 00:12:21;;;;;;;20.83;8.70;;;;;;;-145.18;100.00;60484.78;5071308;28;20036;-62
2023/03/08 00:14:47;;;;;;;19.90;9.07;;;;;;;-145.18;100.00;60484.78;5072254;28;20024;-63
2023/03/08 00:17:13;;;;;;;20.70;8.93;;;;;;;-145.18;100.00;60484.78;5069891;28;20024;-62
2023/03/08 00:19:41;;;;;;;17.07;7.33;;;;;;;-145.18;100.00;60484.78;5071131;28;20384;-62
2023/03/08 00:22:07;;;;;;;22.37;9.37;;;;;;;-145.18;100.00;60484.78;5072223;28;20027;-62
2023/03/08 00:24:35;;;;;;;17.73;8.90;;;;;;;-145.18;100.00;60484.78;5072759;28;20020;-62
2023/03/08 00:27:00;;;;;;;21.50;9.70;;;;;;;-145.18;100.00;60484.78;5071620;28;20502;-62
2023/03/08 00:29:26;;;;;;;20.90;9.83;;;;;;;-145.18;100.00;60484.78;5073083;28;20020;-63
2023/03/08 00:31:51;;;;;;;22.13;10.50;;;;;;;-145.18;100.00;60484.78;5069625;28;20044;-62
2023/03/08 00:34:17;;;;;;;22.93;9.83;;;;;;;-145.18;100.00;60484.78;5069622;28;20454;-63
2023/03/08 00:36:42;;;;;;;21.17;10.07;;;;;;;-145.18;100.00;60484.78;5072333;28;20116;-62
2023/03/08 00:39:10;;;;;;;25.77;9.67;;;;;;;-145.18;100.00;60484.78;5071575;28;20471;-63
2023/03/08 00:41:36;;;;;;;22.47;11.17;;;;;;;-145.18;100.00;60484.78;5070499;28;20746;-64
2023/03/08 00:44:01;;;;;;;22.33;9.57;;;;;;;-145.18;100.00;60484.78;5068373;28;20032;-63
2023/03/08 00:46:27;;;;;;;23.80;9.37;;;;;;;-145.18;100.00;60484.78;5069183;28;20031;-63
2023/03/08 00:48:52;;;;;;;19.40;7.93;;;;;;;-145.18;100.00;60484.78;5070779;28;20099;-62
2023/03/08 00:51:19;;;;;;;22.30;10.23;;;;;;;-145.18;100.00;60484.78;5069660;28;20060;-63
2023/03/08 00:53:45;;;;;;;24.30;11.17;;;;;;;-145.18;100.00;60484.78;5071047;28;20452;-63
2023/03/08 00:56:11;;;;;;;23.53;9.33;;;;;;;-145.18;100.00;60484.78;5070379;28;20020;-62
2023/03/08 00:58:38;;;;;;;20.90;10.50;;;;;;;-145.18;100.00;60484.78;5071710;28;20115;-63
2023/03/08 01:01:04;;;;;;;22.93;10.77;;;;;;;-145.18;100.00;60484.78;5069292;28;20460;-62
2023/03/08 01:03:31;;;;;;;20.17;7.00;;;;;;;-145.18;100.00;60484.78;5068883;28;20024;-62
2023/03/08 01:05:58;;;;;;;23.50;12.00;;;;;;;-145.18;100.00;60484.78;5070385;28;20090;-63
2023/03/08 01:08:25;;;;;;;26.60;10.43;;;;;;;-145.18;100.00;60484.78;5062279;28;20029;-63
2023/03/08 01:10:56;;;;;;;22.60;8.93;;;;;;;-145.18;100.00;60484.78;5071017;28;20519;-63
2023/03/08 01:13:22;;;;;;;20.42;9.73;;;;;;;-145.18;100.00;60484.78;5070522;28;20470;-63
2023/03/08 01:15:48;;;;;;;26.00;11.20;;;;;;;-145.18;100.00;60484.78;5069969;28;20367;-63
2023/03/08 01:18:13;;;;;;;23.83;10.13;;;;;;;-145.18;100.00;60484.78;5069983;28;20031;-63
2023/03/08 01:20:39;;;;;;;27.20;11.33;;;;;;;-145.18;100.00;60484.78;5068521;28;20423;-63
2023/03/08 01:23:04;;;;;;;25.33;10.33;;;;;;;-145.18;100.00;60484.78;5070739;28;20059;-63
2023/03/08 01:25:29;;;;;;;23.73;11.30;;;;;;;-145.18;100.00;60484.78;5068969;28;20039;-63
2023/03/08 01:27:55;;;;;;;22.80;10.13;;;;;;;-145.18;100.00;60484.78;5071304;28;20028;-63
2023/03/08 01:30:20;;;;;;;27.97;12.20;;;;;;;-145.18;100.00;60484.78;5070539;28;20063;-63
2023/03/08 01:32:46;;;;;;;29.13;12.00;;;;;;;-145.18;100.00;60484.78;5070042;28;20017;-62
2023/03/08 01:35:11;;;;;;;28.47;12.20;;;;;;;-145.18;100.00;60484.78;5070014;28;20665;-63
2023/03/08 01:37:37;;;;;;;28.23;12.03;;;;;;;-145.18;100.00;60484.78;5069816;28;20489;-63
2023/03/08 01:40:04;;;;;;;21.87;9.50;;;;;;;-145.18;100.00;60484.78;5069297;28;20033;-63
2023/03/08 01:42:30;;;;;;;25.27;11.80;;;;;;;-145.18;100.00;60484.78;5068831;28;20038;-63
2023/03/08 01:45:01;;;;;;;26.83;11.07;;;;;;;-145.18;100.00;60484.78;5072662;28;20825;-66
2023/03/08 01:47:32;;;;;;;29.13;12.52;;;;;;;-145.18;100.00;60484.78;5069365;28;20479;-66
2023/03/08 01:50:03;;;;;;;26.42;11.13;;;;;;;-145.18;100.00;60484.78;5067882;28;20021;-66
2023/03/08 01:52:54;;;;;;;28.20;12.48;;;;;;;-145.18;100.00;60484.78;5072585;28;20038;-66
2023/03/08 01:55:20;;;;;;;24.88;10.15;;;;;;;-145.18;100.00;60484.78;5067684;28;20029;-66
2023/03/08 01:57:53;;;;;;;23.73;10.97;;;;;;;-145.18;100.00;60484.78;5068506;28;20044;-67
2023/03/08 02:00:25;;;;;;;32.00;12.63;;;;;;;-145.18;100.00;60484.78;5067123;28;20115;-63
2023/03/08 02:03:05;;;;;;;19.70;8.90;;;;;;;-145.18;100.00;60484.78;5070121;28;20056;-63
2023/03/08 02:05:31;;;;;;;22.10;8.97;;;;;;;-145.18;100.00;60484.78;5039408;22;20064;-64
2023/03/08 02:07:57;;;;;;;31.27;12.77;;;;;;;-145.18;100.00;60484.78;5029508;28;20095;-64
2023/03/08 02:10:22;;;;;;;30.43;13.73;;;;;;;-145.18;100.00;60484.78;5029023;28;20475;-64
2023/03/08 02:12:48;;;;;;;33.47;13.33;;;;;;;-145.18;100.00;60484.78;5026319;28;20040;-63
2023/03/08 02:15:16;;;;;;;29.20;13.47;;;;;;;-145.18;100.00;60484.78;5028680;28;20039;-64
2023/03/08 02:17:42;;;;;;;29.57;11.63;;;;;;;-145.18;100.00;60484.78;5035997;23;20595;-70
2023/03/08 02:20:14;;;;;;;22.97;8.77;;;;;;;-145.18;100.00;60484.78;4990832;28;20037;-69
2023/03/08 02:22:40;;;;;;;;;;;;;;;-145.18;100.00;60484.78;5028987;28;20025;-70
2023/03/08 02:25:25;;;;;;;29.77;11.00;;;;;;;-145.18;100.00;60484.78;5080013;22;19927;-69
2023/03/08 02:27:52;;;;;;;23.20;11.03;;;;;;;-145.18;100.00;60484.78;5051171;28;20033;-69
2023/03/08 02:30:24;;;;;;;32.43;12.30;;;;;;;-145.18;100.00;60484.78;5046821;28;20025;-70
2023/03/08 02:32:50;;;;;;;24.93;11.13;;;;;;;-145.18;100.00;60484.78;5046724;28;20028;-70
2023/03/08 02:35:16;;;;;;;31.87;13.63;;;;;;;-145.18;100.00;60484.78;5046317;28;20488;-70
2023/03/08 02:37:41;;;;;;;29.67;14.03;;;;;;;-145.18;100.00;60484.78;5050696;28;20032;-70
2023/03/08 02:40:08;;;;;;;31.73;13.67;;;;;;;-145.18;100.00;60484.78;5049620;28;20051;-69
2023/03/08 02:42:33;;;;;;;29.93;13.53;;;;;;;-145.18;100.00;60484.78;5048184;28;20041;-69
2023/03/08 02:44:58;;;;;;;32.27;13.10;;;;;;;-145.18;100.00;60484.78;5047046;28;20071;-70
2023/03/08 02:47:24;;;;;;;30.80;13.10;;;;;;;-145.18;100.00;60484.78;5048779;28;20047;-70
2023/03/08 02:49:49;;;;;;;30.77;13.13;;;;;;;-145.18;100.00;60484.78;5047154;28;20025;-69
2023/03/08 02:52:15;;;;;;;32.53;12.93;;;;;;;-145.18;100.00;60484.78;5045321;28;20028;-69
2023/03/08 02:54:40;;;;;;;31.33;11.67;;;;;;;-145.18;100.00;60484.78;5045059;28;20037;-70
2023/03/08 02:57:05;;;;;;;30.70;13.60;;;;;;;-145.18;100.00;60484.78;5051773;28;20029;-69
2023/03/08 02:59:31;;;;;;;29.90;12.33;;;;;;;-145.18;100.00;60484.78;5041263;28;20051;-69
2023/03/08 03:01:56;;;;;;;26.60;12.30;;;;;;;-145.18;100.00;60484.78;5049081;28;20132;-69
2023/03/08 03:04:22;;;;;;;31.67;12.83;;;;;;;-145.18;100.00;60484.78;5045514;28;20036;-71
2023/03/08 03:06:48;;;;;;;32.30;13.13;;;;;;;-145.18;100.00;60484.78;5047552;28;20085;-68
2023/03/08 03:09:13;;;;;;;31.97;12.83;;;;;;;-145.18;100.00;60484.78;5049473;28;20020;-69
2023/03/08 03:11:40;;;;;;;33.33;13.03;;;;;;;-145.18;100.00;60484.78;5049001;28;20029;-69
2023/03/08 03:14:06;;;;;;;35.63;13.83;;;;;;;-145.18;100.00;60484.78;5045268;28;20060;-69
2023/03/08 03:16:32;;;;;;;34.60;13.13;;;;;;;-145.18;100.00;60484.78;5047780;28;20072;-69
2023/03/08 03:18:57;;;;;;;32.97;13.83;;;;;;;-145.18;100.00;60484.78;5040768;28;20075;-69
2023/03/08 03:21:23;;;;;;;35.40;13.20;;;;;;;-145.18;100.00;60484.78;5021387;28;20041;-70
2023/03/08 03:23:49;;;;;;;31.07;13.07;;;;;;;-145.18;100.00;60484.78;5042354;28;20438;-69
2023/03/08 03:26:17;;;;;;;36.53;14.33;;;;;;;-145.18;100.00;60484.78;5049202;28;20478;-70
2023/03/08 03:28:43;;;;;;;35.97;14.57;;;;;;;-145.18;100.00;60484.78;5044386;28;20131;-69
2023/03/08 03:31:15;;;;;;;41.53;15.27;;;;;;;-145.18;100.00;60484.78;5041919;28;20029;-69
2023/03/08 03:33:41;;;;;;;38.00;15.50;;;;;;;-145.18;100.00;60484.78;5035651;28;20462;-71
2023/03/08 03:36:09;;;;;;;36.90;14.27;;;;;;;-145.18;100.00;60484.78;5034808;28;20558;-69
2023/03/08 03:38:35;;;;;;;33.87;13.23;;;;;;;-145.18;100.00;60484.78;5037106;28;20033;-71
2023/03/08 03:41:06;;;;;;;33.73;15.13;;;;;;;-145.18;100.00;60484.78;5052684;28;20029;-70
2023/03/08 03:43:31;;;;;;;36.85;14.70;;;;;;;-145.18;100.00;60484.78;5046828;28;20025;-69
2023/03/08 03:45:59;;;;;;;36.63;13.50;;;;;;;-145.18;100.00;60484.78;5049634;28;20388;-69
2023/03/08 03:48:25;;;;;;;37.20;15.07;;;;;;;-145.18;100.00;60484.78;5049614;28;20027;-69
2023/03/08 03:51:00;;;;;;;37.30;15.27;;;;;;;-145.18;100.00;60484.78;5042496;28;20024;-70
2023/03/08 03:53:27;;;;;;;35.33;14.73;;;;;;;-145.18;100.00;60484.78;5047763;28;20106;-71
2023/03/08 03:55:52;;;;;;;33.70;13.50;;;;;;;-145.18;100.00;60484.78;5049823;28;20120;-71
2023/03/08 03:58:18;;;;;;;37.17;14.93;;;;;;;-145.18;100.00;60484.78;5049615;28;20449;-71
2023/03/08 04:00:43;;;;;;;35.17;14.83;;;;;;;-145.18;100.00;60484.78;5041622;28;20043;-71
2023/03/08 04:03:09;;;;;;;36.10;14.07;;;;;;;-145.18;100.00;60484.78;5048873;28;20033;-71
2023/03/08 04:05:34;;;;;;;33.53;14.83;;;;;;;-145.18;100.00;60484.78;5043143;28;20036;-71
2023/03/08 04:08:00;;;;;;;31.60;13.00;;;;;;;-145.18;100.00;60484.78;5041836;28;20033;-70
2023/03/08 04:10:25;;;;;;;34.70;13.97;;;;;;;-145.18;100.00;60484.78;5037269;28;20064;-71
2023/03/08 04:12:51;;;;;;;36.87;15.13;;;;;;;-145.18;100.00;60484.78;5039118;28;20492;-71
2023/03/08 04:15:17;;;;;;;36.70;14.93;;;;;;;-145.18;100.00;60484.78;5050854;28;20076;-71
2023/03/08 04:17:42;;;;;;;36.23;14.57;;;;;;;-145.18;100.00;60484.78;5051993;28;20055;-71
2023/03/08 04:20:08;;;;;;;35.70;14.23;;;;;;;-145.18;100.00;60484.78;5041714;28;20052;-71
2023/03/08 04:22:33;;;;;;;37.73;15.33;;;;;;;-145.18;100.00;60484.78;5047753;28;20083;-71
2023/03/08 04:24:59;;;;;;;37.47;14.20;;;;;;;-145.18;100.00;60484.78;5049864;28;20032;-71
2023/03/08 04:27:24;;;;;;;34.17;14.57;;;;;;;-145.18;100.00;60484.78;5038973;28;20029;-71
2023/03/08 04:29:50;;;;;;;35.00;14.93;;;;;;;-145.18;100.00;60484.78;5042469;28;20021;-71
2023/03/08 04:32:16;;;;;;;35.10;14.87;;;;;;;-145.18;100.00;60484.78;5050780;28;20064;-71
2023/03/08 04:34:41;;;;;;;35.70;14.13;;;;;;;-145.18;100.00;60484.78;5040787;28;20052;-71
2023/03/08 04:37:10;;;;;;;40.00;17.40;;;;;;;-145.18;100.00;60484.78;5039069;28;20017;-71
2023/03/08 04:39:35;;;;;;;36.33;14.93;;;;;;;-145.18;100.00;60484.78;5048662;28;20108;-71
2023/03/08 04:42:01;;;;;;;38.73;16.23;;;;;;;-145.18;100.00;60484.78;5052197;28;20108;-71
2023/03/08 04:44:26;;;;;;;41.50;16.93;;;;;;;-145.18;100.00;60484.78;5046165;28;20051;-71
2023/03/08 04:46:52;;;;;;;38.87;17.80;;;;;;;-145.18;100.00;60484.78;5038065;28;20026;-71
2023/03/08 04:49:17;;;;;;;40.53;17.83;;;;;;;-145.18;100.00;60484.78;5045313;28;20025;-71
2023/03/08 04:51:43;;;;;;;45.17;20.10;;;;;;;-145.18;100.00;60484.78;5048896;28;20111;-71
2023/03/08 04:54:08;;;;;;;41.43;18.00;;;;;;;-145.18;100.00;60484.78;5046615;28;20036;-71
2023/03/08 04:56:34;;;;;;;44.17;17.00;;;;;;;-145.18;100.00;60484.78;5049219;28;20029;-71
2023/03/08 04:58:59;;;;;;;43.50;18.87;;;;;;;-145.18;100.00;60484.78;5050613;28;20094;-71
2023/03/08 05:01:24;;;;;;;47.70;17.50;;;;;;;-145.18;100.00;60484.78;5049760;28;20115;-71
2023/03/08 05:03:51;;;;;;;48.37;19.27;;;;;;;-145.18;100.00;60484.78;5042894;28;20412;-71
2023/03/08 05:06:18;;;;;;;54.67;20.37;;;;;;;-145.18;100.00;60484.78;5041995;28;20017;-71
2023/03/08 05:08:44;;;;;;;47.93;19.53;;;;;;;-145.18;100.00;60484.78;5044712;28;20423;-71
2023/03/08 05:11:13;;;;;;;47.97;19.73;;;;;;;-145.18;100.00;60484.78;5048674;28;20017;-71
2023/03/08 05:13:38;;;;;;;54.80;20.07;;;;;;;-145.18;100.00;60484.78;5049013;28;20439;-71
2023/03/08 05:16:06;;;;;;;58.47;21.57;;;;;;;-145.18;100.00;60484.78;5041028;28;20033;-70
2023/03/08 05:18:32;;;;;;;58.93;21.97;;;;;;;-145.18;100.00;60484.78;5039149;28;20030;-71
2023/03/08 05:21:00;;;;;;;52.87;20.40;;;;;;;-145.18;100.00;60484.78;5039794;28;20482;-71
2023/03/08 05:23:27;;;;;;;51.27;19.33;;;;;;;-145.18;100.00;60484.78;5034517;28;20037;-71
2023/03/08 05:25:53;;;;;;;52.77;21.77;;;;;;;-145.18;100.00;60484.78;5044813;28;20035;-71
2023/03/08 05:28:20;;;;;;;52.17;20.83;;;;;;;-145.18;100.00;60484.78;5045205;28;20021;-71
2023/03/08 05:30:46;;;;;;;54.33;21.03;;;;;;;-145.18;100.00;60484.78;5050200;28;20072;-71
2023/03/08 05:33:11;;;;;;;59.00;21.47;;;;;;;-145.18;100.00;60484.78;5043131;28;20024;-71
2023/03/08 05:35:37;;;;;;;60.90;23.47;;;;;;;-145.18;100.00;60484.78;5048752;28;20087;-71
2023/03/08 05:38:02;;;;;;;57.40;22.40;;;;;;;-145.18;100.00;60484.78;5048185;28;20306;-71
2023/03/08 05:40:28;;;;;;;59.23;22.50;;;;;;;-145.18;100.00;60484.78;5033005;28;20485;-71
2023/03/08 05:42:54;;;;;;;58.37;21.23;;;;;;;-145.18;100.00;60484.78;5047861;28;20048;-71
2023/03/08 05:45:19;;;;;;;55.53;21.80;;;;;;;-145.18;100.00;60484.78;5042394;28;20573;-71
2023/03/08 05:47:45;;;;;;;61.00;21.77;;;;;;;-145.18;100.00;60484.78;5051411;28;20096;-71
2023/03/08 05:50:11;;;;;;;54.20;20.53;;;;;;;-145.18;100.00;60484.78;5049814;28;20025;-71
2023/03/08 05:52:37;;;;;;;50.83;18.83;;;;;;;-145.18;100.00;60484.78;5052459;28;20115;-71
2023/03/08 05:55:04;;;;;;;47.27;19.10;;;;;;;-145.18;100.00;60484.78;5050341;28;20028;-71
2023/03/08 05:57:29;;;;;;;49.90;19.97;;;;;;;-145.18;100.00;60484.78;5052097;28;20064;-71
2023/03/08 05:59:55;;;;;;;53.27;20.80;;;;;;;-145.18;100.00;60484.78;5043424;28;20250;-71
2023/03/08 06:02:20;;;;;;;56.00;21.07;;;;;;;-145.18;100.00;60484.78;5049590;28;20090;-71
2023/03/08 06:04:46;;;;;;;57.40;22.07;;;;;;;-145.18;100.00;60484.78;5045574;28;20412;-71
2023/03/08 06:07:11;;;;;;;65.53;23.03;;;;;;;-145.18;100.00;60484.78;5046275;28;20033;-71
2023/03/08 06:09:37;;;;;;;62.60;22.93;;;;;;;-145.18;100.00;60484.78;5048015;28;20461;-71
2023/03/08 06:12:02;;;;;;;58.77;22.10;;;;;;;-145.18;100.00;60484.78;5041671;28;20032;-71
2023/03/08 06:14:28;;;;;;;62.83;24.17;;;;;;;-145.18;100.00;60484.78;5048908;28;20043;-71
2023/03/08 06:16:53;;;;;;;63.00;23.23;;;;;;;-145.18;100.00;60484.78;5050182;28;20062;-71
2023/03/08 06:19:18;;;;;;;58.87;23.97;;;;;;;-145.18;100.00;60484.78;5048434;28;20120;-71
2023/03/08 06:21:44;;;;;;;62.67;23.17;;;;;;;-145.18;100.00;60484.78;5036400;28;20131;-71
2023/03/08 06:24:09;;;;;;;64.13;21.77;;;;;;;-145.18;100.00;60484.78;5039040;28;20595;-71
2023/03/08 06:26:34;;;;;;;61.33;22.83;;;;;;;-145.18;100.00;60484.78;5042980;28;20029;-71
2023/03/08 06:29:00;;;;;;;53.03;22.07;;;;;;;-145.18;100.00;60484.78;5038670;28;20464;-70
2023/03/08 06:31:25;;;;;;;54.43;20.50;;;;;;;-145.18;100.00;60484.78;5039934;28;20041;-71
2023/03/08 06:33:50;;;;;;;54.73;21.43;;;;;;;-145.18;100.00;60484.78;5044878;28;20496;-71
2023/03/08 06:36:19;;;;;;;53.63;20.67;;;;;;;-145.18;100.00;60484.78;5051548;28;20365;-71
2023/03/08 06:38:44;;;;;;;59.53;22.07;;;;;;;-145.18;100.00;60484.78;5051636;28;20033;-71
2023/03/08 06:41:11;;;;;;;57.30;21.30;;;;;;;-145.18;100.00;60484.78;5051319;28;20032;-70
2023/03/08 06:43:36;;;;;;;54.80;20.83;;;;;;;-145.18;100.00;60484.78;5051841;28;20035;-71
2023/03/08 06:46:04;;;;;;;55.57;20.63;;;;;;;-145.18;100.00;60484.78;5051837;28;20025;-71
2023/03/08 06:48:29;;;;;;;60.33;22.97;;;;;;;-145.18;100.00;60484.78;5051650;28;20032;-71
2023/03/08 06:50:54;;;;;;;55.07;21.20;;;;;;;-145.18;100.00;60484.78;5048240;28;20029;-71
2023/03/08 06:53:20;;;;;;;60.80;22.47;;;;;;;-145.18;100.00;60484.78;5051313;28;20119;-71
2023/03/08 06:55:45;;;;;;;62.10;23.07;;;;;;;-145.18;100.00;60484.78;5051704;28;20025;-71
2023/03/08 06:58:11;;;;;;;53.63;21.50;;;;;;;-145.18;100.00;60484.78;5051556;28;20036;-71
2023/03/08 07:00:36;;;;;;;54.40;20.93;;;;;;;-145.18;100.00;60484.78;5050420;28;20090;-71
2023/03/08 07:03:02;;;;;;;53.77;20.67;;;;;;;-145.18;100.00;60484.78;5050633;28;20044;-72
2023/03/08 07:05:27;;;;;;;52.77;20.30;;;;;;;-145.18;100.00;60484.78;5048111;28;20036;-71
2023/03/08 07:07:52;;;;;;;53.27;21.03;;;;;;;-145.18;100.00;60484.78;5050453;28;20024;-71
2023/03/08 07:10:20;;;;;;;50.17;20.97;;;;;;;-145.18;100.00;60484.78;5050668;28;20017;-71
2023/03/08 07:12:48;;;;;;;58.30;21.97;;;;;;;-145.18;100.00;60484.78;5052338;28;20036;-71
2023/03/08 07:15:15;;;;;;;54.40;21.27;;;;;;;-145.18;100.00;60484.78;5053726;28;20020;-71
2023/03/08 07:17:41;;;;;;;50.43;20.37;;;;;;;-145.18;100.00;60484.78;5054351;28;20036;-68
2023/03/08 07:20:08;;;;;;;50.27;20.40;;;;;;;-145.18;100.00;60484.78;5054195;28;20044;-69
2023/03/08 07:22:34;;;;;;;48.03;21.90;;;;;;;-145.18;100.00;60484.78;5053312;28;20131;-69
2023/03/08 07:24:59;;;;;;;48.17;19.83;;;;;;;-145.18;100.00;60484.78;5053545;28;20116;-69
2023/03/08 07:27:24;;;;;;;44.90;18.87;;;;;;;-145.18;100.00;60484.78;5052269;28;20108;-69
2023/03/08 07:29:50;;;;;;;42.20;19.47;;;;;;;-145.18;100.00;60484.78;5048620;28;20104;-69
2023/03/08 07:32:15;;;;;;;46.73;19.03;;;;;;;-145.18;100.00;60484.78;5041655;28;20052;-69
2023/03/08 07:34:41;;;;;;;45.50;18.70;;;;;;;-145.18;100.00;60484.78;5036384;28;20033;-69
2023/03/08 07:37:11;;;;;;;42.13;18.93;;;;;;;-145.18;100.00;60484.78;5052590;28;20056;-69
2023/03/08 07:39:37;;;;;;;43.13;19.83;;;;;;;-145.18;100.00;60484.78;5054329;28;20479;-69
2023/03/08 07:42:02;;;;;;;43.53;18.70;;;;;;;-145.18;100.00;60484.78;5055221;28;20036;-69
2023/03/08 07:44:27;;;;;;;41.17;17.57;;;;;;;-145.18;100.00;60484.78;5053196;28;20039;-69
2023/03/08 07:46:53;;;;;;;42.00;18.43;;;;;;;-145.18;100.00;60484.78;5052375;28;20059;-69
2023/03/08 07:49:18;;;;;;;37.63;16.83;;;;;;;-145.18;100.00;60484.78;5043725;28;20067;-69
2023/03/08 07:51:43;;;;;;;36.43;15.97;;;;;;;-145.18;100.00;60484.78;5054019;28;20110;-71
2023/03/08 07:54:11;;;;;;;34.43;15.53;;;;;;;-145.18;100.00;60484.78;5034861;28;20025;-71
2023/03/08 07:56:37;;;;;;;38.53;16.90;;;;;;;-145.18;100.00;60484.78;5048294;28;20024;-72
2023/03/08 07:59:02;;;;;;;37.10;15.93;;;;;;;-145.18;100.00;60484.78;5054917;28;20445;-69
2023/03/08 08:01:28;;;;;;;33.37;15.17;;;;;;;-145.18;100.00;60484.78;5054268;28;20388;-69
2023/03/08 08:03:53;;;;;;;32.77;14.73;;;;;;;-145.18;100.00;60484.78;5054724;28;20104;-71
2023/03/08 08:06:19;;;;;;;36.20;15.70;;;;;;;-145.18;100.00;60484.78;5054356;28;20029;-71
2023/03/08 08:08:44;;;;;;;34.37;15.43;;;;;;;-145.18;100.00;60484.78;5054169;28;20025;-71
2023/03/08 08:11:15;;;;;;;34.90;15.30;;;;;;;-145.18;100.00;60484.78;5054191;28;20377;-71
2023/03/08 08:13:40;;;;;;;31.73;15.13;;;;;;;-145.18;100.00;60484.78;5048695;28;20026;-71
2023/03/08 08:16:07;;;;;;;28.93;14.33;;;;;;;-145.18;100.00;60484.78;5046902;28;20037;-71
2023/03/08 08:18:33;;;;;;;26.87;14.13;;;;;;;-145.18;100.00;60484.78;5052641;28;20055;-71
2023/03/08 08:21:03;;;;;;;30.03;14.10;;;;;;;-145.18;100.00;60484.78;5054244;28;20033;-70
2023/03/08 08:23:29;;;;;;;33.47;13.63;;;;;;;-145.18;100.00;60484.78;5050730;28;20025;-71
2023/03/08 08:25:55;;;;;;;26.77;11.97;;;;;;;-145.18;100.00;60484.78;5053838;28;20487;-71
2023/03/08 08:28:21;;;;;;;26.50;12.57;;;;;;;-145.18;100.00;60484.78;5052261;28;20032;-71
2023/03/08 08:30:55;;;;;;;27.07;13.43;;;;;;;-145.18;100.00;60484.78;5051855;28;20036;-71
2023/03/08 08:33:21;;;;;;;26.77;12.97;;;;;;;-145.18;100.00;60484.78;5053486;28;20021;-71
2023/03/08 08:35:46;;;;;;;26.83;13.00;;;;;;;-145.18;100.00;60484.78;5053765;28;20384;-71
2023/03/08 08:38:12;;;;;;;28.27;12.77;;;;;;;-145.18;100.00;60484.78;5052322;28;20025;-71
2023/03/08 08:40:37;;;;;;;26.93;13.50;;;;;;;-145.18;100.00;60484.78;5053060;28;20036;-71
2023/03/08 08:43:02;;;;;;;26.67;13.60;;;;;;;-145.18;100.00;60484.78;5053424;28;20167;-71
2023/03/08 08:45:28;;;;;;;25.87;13.67;;;;;;;-145.18;100.00;60484.78;5042945;28;20022;-72
2023/03/08 08:47:53;;;;;;;24.93;13.40;;;;;;;-145.18;100.00;60484.78;5049442;28;20536;-71
2023/03/08 08:50:18;;;;;;;27.10;14.27;;;;;;;-145.18;100.00;60484.78;5053163;28;20025;-71
2023/03/08 08:52:44;;;;;;;25.90;13.27;;;;;;;-145.18;100.00;60484.78;5052890;28;20037;-71
2023/03/08 08:55:09;;;;;;;26.30;13.00;;;;;;;-145.18;100.00;60484.78;5052737;28;20029;-71
2023/03/08 08:57:35;;;;;;;24.87;13.07;;;;;;;-145.18;100.00;60484.78;5052716;28;20280;-71
2023/03/08 09:00:00;;;;;;;27.80;14.60;;;;;;;-145.18;100.00;60484.78;5047248;28;20381;-71
2023/03/08 09:02:25;;;;;;;27.17;13.93;;;;;;;-145.18;100.00;60484.78;5047831;28;20041;-71
2023/03/08 09:04:51;;;;;;;25.10;13.53;;;;;;;-145.18;100.00;60484.78;5052517;28;20070;-71
2023/03/08 09:07:16;;;;;;;28.77;13.60;;;;;;;-145.18;100.00;60484.78;5051858;28;20033;-71
2023/03/08 09:09:41;;;;;;;30.03;14.53;;;;;;;-145.18;100.00;60484.78;5052964;28;20021;-71
2023/03/08 09:12:07;;;;;;;30.27;14.63;;;;;;;-145.18;100.00;60484.78;5053077;28;20139;-71
2023/03/08 09:14:33;;;;;;;30.33;14.40;;;;;;;-145.18;100.00;60484.78;5052161;28;20025;-71
2023/03/08 09:16:59;;;;;;;26.93;13.17;;;;;;;-145.18;100.00;60484.78;5051204;28;20029;-71
2023/03/08 09:19:24;;;;;;;28.03;13.63;;;;;;;-145.18;100.00;60484.78;5043535;28;20032;-71
2023/03/08 09:21:49;;;;;;;29.33;13.27;;;;;;;-145.18;100.00;60484.78;5051982;28;20071;-71
2023/03/08 09:24:15;;;;;;;25.40;12.20;;;;;;;-145.18;100.00;60484.78;5045342;28;20031;-71
2023/03/08 09:26:41;;;;;;;26.83;11.83;;;;;;;-145.18;100.00;60484.78;5051940;28;20067;-71
2023/03/08 09:29:06;;;;;;;22.47;11.20;;;;;;;-145.18;100.00;60484.78;5052345;28;20048;-71
2023/03/08 09:31:34;;;;;;;23.93;12.00;;;;;;;-145.18;100.00;60484.78;5050633;28;20488;-71
2023/03/08 09:34:00;;;;;;;22.63;11.00;;;;;;;-145.18;100.00;60484.78;5049085;28;20037;-71
2023/03/08 09:36:27;;;;;;;25.90;11.70;;;;;;;-145.18;100.00;60484.78;5051889;28;20036;-71
2023/03/08 09:38:53;;;;;;;27.33;12.77;;;;;;;-145.18;100.00;60484.78;5051118;28;20099;-71
2023/03/08 09:41:25;;;;;;;26.77;12.43;;;;;;;-145.18;100.00;60484.78;5051689;28;20025;-71
2023/03/08 09:47:40;;;;;;;21.97;10.27;;;;;;;-145.18;100.00;60484.78;5008395;28;20065;-70
2023/03/08 09:50:12;;;;;;;20.83;10.00;;;;;;;-145.18;100.00;60484.78;5007754;28;20125;-70
2023/03/08 09:53:09;;;;;;;19.45;9.65;;;;;;;-145.18;100.00;60484.78;5010425;28;20030;-70
2023/03/08 09:55:42;;;;;;;21.10;9.30;;;;;;;-145.18;100.00;60484.78;5010137;28;20652;-70
2023/03/08 09:58:27;;;;;;;24.07;13.27;;;;;;;-145.18;100.00;60484.78;5008162;28;20040;-70
2023/03/08 10:00:57;;;;;;;24.83;12.07;;;;;;;-145.18;100.00;60484.78;4995693;28;20401;-70
2023/03/08 10:03:58;;;;;;;21.17;10.17;;;;;;;-145.18;100.00;60484.78;5007911;28;20097;-70
2023/03/08 10:06:52;;;;;;;21.97;10.43;;;;;;;-145.18;100.00;60484.78;5002729;28;20509;-70
2023/03/08 10:09:32;;;;;;;23.80;11.03;;;;;;;-145.18;100.00;60484.78;4975950;28;20313;-70
2023/03/08 10:12:23;;;;;;;21.27;11.00;;;;;;;-145.18;100.00;60484.78;4990547;28;20034;-70
2023/03/08 10:14:53;;;;;;;21.05;9.50;;;;;;;-145.18;100.00;60484.78;4990499;28;20041;-70
2023/03/08 10:17:22;;;;;;;23.27;11.20;;;;;;;-145.18;100.00;60484.78;5004338;28;20065;-70
2023/03/08 10:19:54;;;;;;;25.47;11.07;;;;;;;-145.18;100.00;60484.78;5009856;28;20032;-70
2023/03/08 10:22:29;;;;;;;24.80;12.17;;;;;;;-145.18;100.00;60484.78;5047557;28;20045;-70
2023/03/08 10:25:23;;;;;;;30.13;12.77;;;;;;;-145.18;100.00;60484.78;5052901;28;20021;-75
2023/03/08 10:27:53;;;;;;;24.23;11.20;;;;;;;-145.18;100.00;60484.78;5032366;28;20033;-71
2023/03/08 10:30:21;;;;;;;24.20;12.00;;;;;;;-145.18;100.00;60484.78;5051923;28;20091;-71
2023/03/08 10:32:49;;;;;;;25.20;12.20;;;;;;;-145.18;100.00;60484.78;5051834;28;20077;-71
2023/03/08 10:35:16;;;;;;;24.07;11.57;;;;;;;-145.18;100.00;60484.78;5048739;28;20029;-71
2023/03/08 10:37:41;;;;;;;24.57;11.43;;;;;;;-145.18;100.00;60484.78;5049466;28;20025;-71
2023/03/08 10:40:18;;;;;;;26.43;13.07;;;;;;;-145.18;100.00;60484.78;5051348;28;20040;-71
2023/03/08 10:42:58;;;;;;;26.97;13.07;;;;;;;-145.18;100.00;60484.78;5051354;28;20691;-71
2023/03/08 10:45:24;;;;;;;23.53;10.83;;;;;;;-145.18;100.00;60484.78;5050733;28;20613;-71
2023/03/08 10:48:01;;;;;;;23.30;11.60;;;;;;;-145.18;100.00;60484.78;5050329;28;20025;-71
2023/03/08 10:50:35;;;;;;;23.33;10.90;;;;;;;-145.18;100.00;60484.78;5050035;28;20044;-71
2023/03/08 10:53:18;;;;;;;23.63;10.87;;;;;;;-145.18;100.00;60484.78;5050700;28;20029;-71
2023/03/08 10:55:50;;;;;;;22.30;10.20;;;;;;;-145.18;100.00;60484.78;5049663;28;20040;-71
2023/03/08 10:58:31;;;;;;;21.25;9.90;;;;;;;-145.18;100.00;60484.78;5051133;28;20028;-71